Time;durP1;ratioP1;P1;durP2;ratioP2;P2;SDS_P1;SDS_P2;PMS_P1;PMS_P2;Temp;Humidity;BMP_temperature;BMP_pressure;BME280_temperature;BME280_humidity;BME280_pressure;Samples;Min_cycle;Max_cycle;Signal;HPM_P1;HPM_P2
2021/12/27 00:01:15;;;;;;;;;;;23.10;54.70;;;;;;5054473;28;944;-33
2021/12/27 00:03:43;;;;;;;;;;;23.10;54.80;;;;;;5055321;28;1959;-34
2021/12/27 00:06:11;;;;;;;;;;;23.10;54.80;;;;;;5050518;28;1018;-35
2021/12/27 00:08:39;;;;;;;;;;;23.00;54.70;;;;;;5049923;28;932;-34
2021/12/27 00:11:06;;;;;;;;;;;23.00;54.80;;;;;;5054342;28;1028;-35
2021/12/27 00:13:33;;;;;;;;;;;23.00;54.70;;;;;;5054577;28;959;-34
2021/12/27 00:16:00;;;;;;;;;;;23.00;54.70;;;;;;5051476;28;1104;-33
2021/12/27 00:18:26;;;;;;;;;;;23.00;54.80;;;;;;5051045;28;996;-35
2021/12/27 00:20:53;;;;;;;;;;;23.00;54.80;;;;;;5054414;28;1015;-35
2021/12/27 00:23:21;;;;;;;;;;;23.00;54.70;;;;;;5054381;28;1906;-35
2021/12/27 00:25:48;;;;;;;;;;;23.00;54.70;;;;;;5049710;28;941;-35
2021/12/27 00:28:15;;;;;;;;;;;23.00;54.80;;;;;;5048689;28;1027;-34
2021/12/27 00:30:41;;;;;;;;;;;23.00;54.70;;;;;;5054211;28;1011;-35
2021/12/27 00:33:08;;;;;;;;;;;23.00;54.70;;;;;;5058122;28;1024;-35
2021/12/27 00:35:36;;;;;;;;;;;23.00;54.70;;;;;;5054324;28;1017;-35
2021/12/27 00:38:03;;;;;;;;;;;23.10;54.80;;;;;;5054578;28;1026;-34
2021/12/27 00:40:31;;;;;;;;;;;23.00;54.70;;;;;;5057943;28;980;-35
2021/12/27 00:42:58;;;;;;;;;;;23.10;54.60;;;;;;5057492;28;1988;-35
2021/12/27 00:45:25;;;;;;;;;;;23.10;54.60;;;;;;5056488;28;978;-35
2021/12/27 00:47:54;;;;;;;;;;;23.10;54.60;;;;;;5053422;28;1838;-35
2021/12/27 00:50:20;;;;;;;;;;;23.10;54.50;;;;;;5056340;28;1011;-34
2021/12/27 00:52:48;;;;;;;;;;;23.10;54.60;;;;;;5056239;28;1007;-34
2021/12/27 00:55:16;;;;;;;;;;;23.00;54.50;;;;;;5057687;28;991;-34
2021/12/27 00:57:45;;;;;;;;;;;23.00;54.50;;;;;;5050684;28;1030;-35
2021/12/27 01:00:13;;;;;;;;;;;23.00;54.50;;;;;;5057047;28;893;-37
2021/12/27 01:02:40;;;;;;;;;;;23.00;54.50;;;;;;5056824;28;1906;-35
2021/12/27 01:05:10;;;;;;;;;;;23.00;54.50;;;;;;5057185;28;993;-35
2021/12/27 01:07:37;;;;;;;;;;;23.00;54.50;;;;;;5048546;28;968;-35
2021/12/27 01:10:18;;;;;;;;;;;23.00;54.50;;;;;;5057447;27;1026;-34
2021/12/27 01:12:51;;;;;;;;;;;23.00;54.50;;;;;;5057015;28;1001;-35
2021/12/27 01:15:35;;;;;;;;;;;23.00;54.50;;;;;;5057210;28;972;-35
2021/12/27 01:18:02;;;;;;;;;;;23.00;54.50;;;;;;5054467;28;976;-35
2021/12/27 01:20:29;;;;;;;;;;;23.00;54.50;;;;;;5057349;28;991;-34
2021/12/27 01:22:56;;;;;;;;;;;23.00;54.50;;;;;;5057586;28;1980;-34
2021/12/27 01:25:23;;;;;;;;;;;23.00;54.50;;;;;;5056073;28;937;-35
2021/12/27 01:27:51;;;;;;;;;;;23.00;54.50;;;;;;5051121;28;972;-35
2021/12/27 01:30:19;;;;;;;;;;;23.00;54.50;;;;;;5056726;28;1007;-34
2021/12/27 01:32:49;;;;;;;;;;;22.90;54.40;;;;;;5056743;28;1011;-34
2021/12/27 01:35:16;;;;;;;;;;;22.90;54.40;;;;;;5057523;28;968;-34
2021/12/27 01:37:43;;;;;;;;;;;22.90;54.40;;;;;;5048469;28;948;-33
2021/12/27 01:40:11;;;;;;;;;;;23.00;54.40;;;;;;5057166;28;972;-36
2021/12/27 01:42:38;;;;;;;;;;;23.00;54.40;;;;;;5056604;28;1878;-34
2021/12/27 01:45:07;;;;;;;;;;;22.90;54.40;;;;;;5057117;28;1015;-34
2021/12/27 01:47:33;;;;;;;;;;;23.00;54.50;;;;;;5048413;28;941;-34
2021/12/27 01:50:00;;;;;;;;;;;22.90;54.30;;;;;;5055558;28;1082;-35
2021/12/27 01:52:27;;;;;;;;;;;23.00;54.40;;;;;;5056516;28;1009;-34
2021/12/27 01:54:53;;;;;;;;;;;22.90;54.30;;;;;;5056795;28;980;-34
2021/12/27 01:57:20;;;;;;;;;;;22.90;54.40;;;;;;5047746;28;1746;-34
2021/12/27 01:59:47;;;;;;;;;;;22.90;54.40;;;;;;5056748;28;1007;-35
2021/12/27 02:02:15;;;;;;;;;;;23.00;54.30;;;;;;5056748;28;949;-34
2021/12/27 02:04:42;;;;;;;;;;;23.00;54.30;;;;;;5056415;28;1991;-35
2021/12/27 02:07:09;;;;;;;;;;;23.00;54.40;;;;;;5046450;28;996;-35
2021/12/27 02:09:46;;;;;;;;;;;22.90;54.30;;;;;;5056647;28;980;-34
2021/12/27 02:12:13;;;;;;;;;;;22.90;54.40;;;;;;5056149;28;936;-34
2021/12/27 02:14:40;;;;;;;;;;;22.90;54.40;;;;;;5056323;28;1044;-34
2021/12/27 02:17:07;;;;;;;;;;;22.90;54.40;;;;;;5048562;28;1010;-35
2021/12/27 02:19:37;;;;;;;;;;;22.90;54.40;;;;;;5056239;28;1022;-35
2021/12/27 02:22:05;;;;;;;;;;;22.90;54.50;;;;;;5056412;28;948;-34
2021/12/27 02:24:33;;;;;;;;;;;22.90;54.40;;;;;;5055995;28;1981;-35
2021/12/27 02:26:59;;;;;;;;;;;22.90;54.50;;;;;;5041081;28;860;-35
2021/12/27 02:29:26;;;;;;;;;;;22.90;54.40;;;;;;5056065;28;1020;-34
2021/12/27 02:31:53;;;;;;;;;;;22.90;54.40;;;;;;5055805;28;969;-34
2021/12/27 02:34:19;;;;;;;;;;;22.90;54.40;;;;;;5056477;28;963;-34
2021/12/27 02:36:48;;;;;;;;;;;22.90;54.40;;;;;;5051507;28;960;-34
2021/12/27 02:39:16;;;;;;;;;;;22.90;54.40;;;;;;5054806;28;1069;-34
2021/12/27 02:41:43;;;;;;;;;;;22.90;54.40;;;;;;5056075;28;1056;-34
2021/12/27 02:44:10;;;;;;;;;;;22.90;54.30;;;;;;5056066;28;1906;-34
2021/12/27 02:46:37;;;;;;;;;;;22.90;54.30;;;;;;5050254;28;682;-35
2021/12/27 02:49:04;;;;;;;;;;;22.90;54.30;;;;;;5051344;28;1046;-34
2021/12/27 02:51:31;;;;;;;;;;;22.90;54.40;;;;;;5055522;28;1008;-35
2021/12/27 02:53:58;;;;;;;;;;;22.90;54.40;;;;;;5054459;28;1210;-34
2021/12/27 02:56:29;;;;;;;;;;;22.90;54.40;;;;;;5049480;28;936;-34
2021/12/27 02:58:56;;;;;;;;;;;22.90;54.30;;;;;;5053089;28;1113;-35
2021/12/27 03:01:24;;;;;;;;;;;23.00;54.20;;;;;;5055510;28;988;-35
2021/12/27 03:03:50;;;;;;;;;;;23.00;54.20;;;;;;5055037;28;1995;-34
2021/12/27 03:06:17;;;;;;;;;;;22.90;54.20;;;;;;5046674;28;944;-34
2021/12/27 03:08:45;;;;;;;;;;;22.90;54.30;;;;;;5051896;28;991;-35
2021/12/27 03:11:12;;;;;;;;;;;22.90;54.30;;;;;;5055350;28;1015;-34
2021/12/27 03:13:41;;;;;;;;;;;23.00;54.20;;;;;;5055399;28;1008;-34
2021/12/27 03:16:09;;;;;;;;;;;23.00;54.00;;;;;;5049905;28;976;-35
2021/12/27 03:18:58;;;;;;;;;;;23.00;54.00;;;;;;5049564;28;825;-34
2021/12/27 03:21:26;;;;;;;;;;;23.10;54.00;;;;;;5055477;28;1054;-35
2021/12/27 03:23:53;;;;;;;;;;;23.10;53.80;;;;;;5055205;28;1902;-34
2021/12/27 03:26:20;;;;;;;;;;;23.10;53.70;;;;;;5048142;28;1000;-35
2021/12/27 03:28:48;;;;;;;;;;;23.10;53.80;;;;;;5053536;28;996;-34
2021/12/27 03:31:16;;;;;;;;;;;23.10;53.80;;;;;;5055323;28;1111;-35
2021/12/27 03:33:43;;;;;;;;;;;23.10;53.80;;;;;;5055224;28;968;-35
2021/12/27 03:36:10;;;;;;;;;;;23.10;53.90;;;;;;5050336;28;924;-35
2021/12/27 03:38:38;;;;;;;;;;;23.10;54.00;;;;;;5050152;28;900;-35
2021/12/27 03:41:06;;;;;;;;;;;23.00;54.00;;;;;;5055205;28;972;-34
2021/12/27 03:43:33;;;;;;;;;;;23.00;54.00;;;;;;5055172;28;1898;-34
2021/12/27 03:46:01;;;;;;;;;;;23.00;54.00;;;;;;5050644;28;908;-35
2021/12/27 03:48:28;;;;;;;;;;;23.00;54.00;;;;;;5048191;28;967;-35
2021/12/27 03:50:55;;;;;;;;;;;23.00;54.20;;;;;;5055415;28;1017;-35
2021/12/27 03:53:22;;;;;;;;;;;22.90;54.20;;;;;;5055069;28;964;-34
2021/12/27 03:55:49;;;;;;;;;;;22.90;54.20;;;;;;5050606;28;977;-35
2021/12/27 03:58:26;;;;;;;;;;;22.90;54.20;;;;;;5050393;28;1089;-35
2021/12/27 04:01:02;;;;;;;;;;;22.90;54.20;;;;;;5054280;28;943;-35
2021/12/27 04:03:31;;;;;;;;;;;22.90;54.30;;;;;;5054976;28;1981;-35
2021/12/27 04:05:58;;;;;;;;;;;22.90;54.30;;;;;;5054689;28;985;-35
2021/12/27 04:08:25;;;;;;;;;;;22.90;54.40;;;;;;5056723;28;933;-34
2021/12/27 04:10:53;;;;;;;;;;;22.90;54.30;;;;;;5061378;28;990;-34
2021/12/27 04:13:21;;;;;;;;;;;22.90;54.20;;;;;;5061774;28;1031;-35
2021/12/27 04:15:48;;;;;;;;;;;22.90;54.20;;;;;;5055942;27;981;-35
2021/12/27 04:18:15;;;;;;;;;;;22.90;54.20;;;;;;5056145;28;929;-36
2021/12/27 04:20:43;;;;;;;;;;;23.00;54.20;;;;;;5061363;28;937;-34
2021/12/27 04:23:10;;;;;;;;;;;23.00;54.20;;;;;;5061263;28;1906;-34
2021/12/27 04:25:36;;;;;;;;;;;23.00;54.20;;;;;;5055916;28;932;-44
2021/12/27 04:28:03;;;;;;;;;;;22.90;54.20;;;;;;5053141;28;975;-35
2021/12/27 04:30:30;;;;;;;;;;;22.90;54.10;;;;;;5061728;28;1079;-34
2021/12/27 04:32:57;;;;;;;;;;;22.90;54.20;;;;;;5061156;28;995;-35
2021/12/27 04:35:24;;;;;;;;;;;22.90;54.20;;;;;;5057834;28;1054;-35
2021/12/27 04:37:53;;;;;;;;;;;22.90;54.10;;;;;;5047083;28;992;-34
2021/12/27 04:40:21;;;;;;;;;;;22.90;54.10;;;;;;5060889;28;924;-34
2021/12/27 04:42:49;;;;;;;;;;;22.90;54.10;;;;;;5061507;28;984;-34
2021/12/27 04:45:16;;;;;;;;;;;22.90;54.10;;;;;;5060880;28;1902;-34
2021/12/27 04:47:43;;;;;;;;;;;22.90;54.10;;;;;;5050596;28;1177;-35
2021/12/27 04:50:10;;;;;;;;;;;23.00;54.10;;;;;;5061407;28;1073;-34
2021/12/27 04:52:37;;;;;;;;;;;23.00;54.00;;;;;;5060854;28;961;-34
2021/12/27 04:55:05;;;;;;;;;;;23.00;54.00;;;;;;5060605;28;948;-35
2021/12/27 04:57:33;;;;;;;;;;;23.00;53.90;;;;;;5051669;28;881;-34
2021/12/27 05:00:00;;;;;;;;;;;23.00;53.90;;;;;;5060375;28;1045;-35
2021/12/27 05:02:27;;;;;;;;;;;23.00;53.80;;;;;;5060661;28;940;-34
2021/12/27 05:04:54;;;;;;;;;;;22.90;53.80;;;;;;5060532;28;1996;-34
2021/12/27 05:07:20;;;;;;;;;;;23.00;54.00;;;;;;5053473;28;863;-35
2021/12/27 05:09:47;;;;;;;;;;;22.90;55.00;;;;;;5060717;28;988;-34
2021/12/27 05:12:15;;;;;;;;;;;22.90;53.90;;;;;;5060451;28;969;-34
2021/12/27 05:14:42;;;;;;;;;;;22.90;53.90;;;;;;5060524;28;932;-34
2021/12/27 05:17:09;;;;;;;;;;;22.90;53.80;;;;;;5048726;28;1829;-34
2021/12/27 05:19:35;;;;;;;;;;;22.90;53.90;;;;;;5056990;28;1028;-35
2021/12/27 05:22:02;;;;;;;;;;;22.90;53.90;;;;;;5057468;28;1012;-34
2021/12/27 05:24:29;;;;;;;;;;;22.90;53.90;;;;;;5057347;28;1980;-34
2021/12/27 05:26:56;;;;;;;;;;;22.90;53.90;;;;;;5048357;28;969;-35
2021/12/27 05:29:24;;;;;;;;;;;22.90;53.90;;;;;;5057182;28;1011;-34
2021/12/27 05:31:52;;;;;;;;;;;22.90;53.90;;;;;;5056829;28;979;-34
2021/12/27 05:34:19;;;;;;;;;;;22.90;53.90;;;;;;5057153;28;956;-34
2021/12/27 05:36:46;;;;;;;;;;;22.90;54.00;;;;;;5049946;28;1020;-35
2021/12/27 05:39:15;;;;;;;;;;;22.90;53.80;;;;;;5054484;28;979;-34
2021/12/27 05:41:42;;;;;;;;;;;22.90;53.90;;;;;;5056927;28;992;-34
2021/12/27 05:44:09;;;;;;;;;;;22.90;53.90;;;;;;5056187;28;1973;-35
2021/12/27 05:46:37;;;;;;;;;;;22.90;53.90;;;;;;5047985;28;994;-34
2021/12/27 05:49:04;;;;;;;;;;;22.90;53.90;;;;;;5052464;28;948;-34
2021/12/27 05:51:30;;;;;;;;;;;22.80;53.80;;;;;;5056500;28;1038;-34
2021/12/27 05:53:57;;;;;;;;;;;22.80;53.90;;;;;;5056882;28;1001;-37
2021/12/27 05:56:24;;;;;;;;;;;22.80;53.80;;;;;;5051165;28;995;-37
2021/12/27 05:58:51;;;;;;;;;;;22.80;53.80;;;;;;5055498;28;1075;-37
2021/12/27 06:01:18;;;;;;;;;;;22.90;53.70;;;;;;5057503;28;1027;-37
2021/12/27 06:03:46;;;;;;;;;;;22.80;53.70;;;;;;5057406;28;1985;-37
2021/12/27 06:06:14;;;;;;;;;;;22.80;53.80;;;;;;5053186;28;944;-38
2021/12/27 06:08:40;;;;;;;;;;;23.00;53.50;;;;;;5055216;28;999;-37
2021/12/27 06:11:07;;;;;;;;;;;22.90;53.60;;;;;;5057174;28;1055;-37
2021/12/27 06:13:34;;;;;;;;;;;22.90;53.50;;;;;;5057488;28;1013;-37
2021/12/27 06:16:01;;;;;;;;;;;22.90;53.50;;;;;;5055227;27;1023;-37
2021/12/27 06:18:28;;;;;;;;;;;22.90;53.50;;;;;;5054968;28;945;-37
2021/12/27 06:20:56;;;;;;;;;;;22.80;53.60;;;;;;5056984;28;1011;-37
2021/12/27 06:23:22;;;;;;;;;;;22.80;53.70;;;;;;5056663;28;931;-37
2021/12/27 06:25:49;;;;;;;;;;;22.90;53.60;;;;;;5052321;28;1976;-37
2021/12/27 06:28:17;;;;;;;;;;;22.90;53.60;;;;;;5051339;28;2408;-34
2021/12/27 06:30:43;;;;;;;;;;;22.90;53.50;;;;;;5054573;28;992;-35
2021/12/27 06:33:10;;;;;;;;;;;22.90;53.40;;;;;;5054859;28;1031;-35
2021/12/27 06:35:37;;;;;;;;;;;22.90;53.50;;;;;;5052625;28;944;-35
2021/12/27 06:38:06;;;;;;;;;;;22.90;53.50;;;;;;5052517;28;908;-34
2021/12/27 06:40:33;;;;;;;;;;;22.90;53.50;;;;;;5055624;28;1027;-35
2021/12/27 06:43:00;;;;;;;;;;;22.90;53.50;;;;;;5055942;27;1092;-35
2021/12/27 06:45:27;;;;;;;;;;;22.90;53.50;;;;;;5053746;28;1902;-34
2021/12/27 06:47:53;;;;;;;;;;;22.90;53.50;;;;;;5047738;28;1032;-34
2021/12/27 06:50:23;;;;;;;;;;;22.90;53.60;;;;;;5054921;28;959;-34
2021/12/27 06:52:50;;;;;;;;;;;22.90;53.80;;;;;;5055659;27;1022;-35
2021/12/27 06:55:18;;;;;;;;;;;23.00;53.70;;;;;;5055857;28;991;-36
2021/12/27 06:57:45;;;;;;;;;;;23.00;53.50;;;;;;5047972;28;1042;-34
2021/12/27 07:00:14;;;;;;;;;;;23.00;53.60;;;;;;5055110;28;999;-34
2021/12/27 07:02:40;;;;;;;;;;;23.00;53.50;;;;;;5055324;28;990;-34
2021/12/27 07:05:07;;;;;;;;;;;23.10;53.50;;;;;;5055363;28;1901;-34
2021/12/27 07:07:34;;;;;;;;;;;22.90;53.70;;;;;;5048696;28;1011;-37
2021/12/27 07:10:00;;;;;;;;;;;22.90;53.80;;;;;;5055994;27;967;-37
2021/12/27 07:12:28;;;;;;;;;;;22.90;53.70;;;;;;5056189;28;1000;-37
2021/12/27 07:14:55;;;;;;;;;;;22.90;53.70;;;;;;5056846;28;1051;-37
2021/12/27 07:17:22;;;;;;;;;;;22.90;53.70;;;;;;5048792;28;984;-37
2021/12/27 07:19:49;;;;;;;;;;;22.90;53.70;;;;;;5056041;28;972;-37
2021/12/27 07:22:16;;;;;;;;;;;22.90;53.70;;;;;;5056051;28;999;-37
2021/12/27 07:24:42;;;;;;;;;;;22.90;53.60;;;;;;5056182;28;1910;-37
2021/12/27 07:27:09;;;;;;;;;;;22.90;53.60;;;;;;5049822;28;970;-37
2021/12/27 07:29:37;;;;;;;;;;;22.90;53.60;;;;;;5055989;28;1004;-37
2021/12/27 07:32:05;;;;;;;;;;;22.90;53.60;;;;;;5056598;28;935;-36
2021/12/27 07:34:31;;;;;;;;;;;22.90;53.50;;;;;;5055591;28;1031;-37
2021/12/27 07:36:58;;;;;;;;;;;22.90;53.50;;;;;;5051204;28;1018;-34
2021/12/27 07:39:26;;;;;;;;;;;22.90;53.40;;;;;;5054874;28;951;-34
2021/12/27 07:41:53;;;;;;;;;;;22.90;53.50;;;;;;5054604;28;973;-34
2021/12/27 07:44:19;;;;;;;;;;;22.80;53.50;;;;;;5054508;28;1901;-34
2021/12/27 07:46:48;;;;;;;;;;;22.90;53.50;;;;;;5049538;28;1009;-34
2021/12/27 07:49:15;;;;;;;;;;;22.90;53.40;;;;;;5052262;28;1011;-34
2021/12/27 07:51:42;;;;;;;;;;;22.90;53.40;;;;;;5052822;28;980;-34
2021/12/27 07:54:09;;;;;;;;;;;22.90;53.40;;;;;;5054223;28;944;-34
2021/12/27 07:56:37;;;;;;;;;;;22.80;53.40;;;;;;5050074;28;940;-34
2021/12/27 07:59:04;;;;;;;;;;;22.80;53.50;;;;;;5051924;28;1545;-34
2021/12/27 08:01:31;;;;;;;;;;;22.80;53.50;;;;;;5053341;28;1040;-34
2021/12/27 08:04:01;;;;;;;;;;;22.80;53.50;;;;;;5054066;28;869;-34
2021/12/27 08:06:28;;;;;;;;;;;22.80;53.50;;;;;;5048887;28;2050;-34
2021/12/27 08:08:55;;;;;;;;;;;22.90;53.30;;;;;;5052204;28;981;-34
2021/12/27 08:11:22;;;;;;;;;;;22.90;53.30;;;;;;5053182;28;975;-34
2021/12/27 08:13:49;;;;;;;;;;;22.90;53.30;;;;;;5053758;28;956;-34
2021/12/27 08:16:17;;;;;;;;;;;22.90;53.20;;;;;;5050233;28;991;-34
2021/12/27 08:18:46;;;;;;;;;;;22.90;53.20;;;;;;5052258;28;1047;-34
2021/12/27 08:21:16;;;;;;;;;;;22.90;53.10;;;;;;5053807;27;982;-34
2021/12/27 08:23:43;;;;;;;;;;;22.90;53.20;;;;;;5054080;27;1002;-34
2021/12/27 08:26:09;;;;;;;;;;;22.90;53.00;;;;;;5051455;28;1910;-34
2021/12/27 08:28:36;;;;;;;;;;;22.80;53.00;;;;;;5049148;28;1087;-34
2021/12/27 08:31:03;;;;;;;;;;;22.90;53.00;;;;;;5050954;28;1048;-34
2021/12/27 08:33:30;;;;;;;;;;;22.80;53.10;;;;;;5051366;28;968;-34
2021/12/27 08:35:57;;;;;;;;;;;22.80;53.10;;;;;;5049501;28;999;-34
2021/12/27 08:38:25;;;;;;;;;;;22.80;53.10;;;;;;5048814;28;1038;-34
2021/12/27 08:40:52;;;;;;;;;;;22.90;53.10;;;;;;5049477;28;1008;-34
2021/12/27 08:43:19;;;;;;;;;;;22.90;52.80;;;;;;5052611;28;937;-34
2021/12/27 08:45:45;;;;;;;;;;;22.90;52.90;;;;;;5051617;28;1910;-34
2021/12/27 08:48:12;;;;;;;;;;;22.90;52.90;;;;;;5050552;28;965;-34
2021/12/27 08:50:39;;;;;;;;;;;22.80;53.00;;;;;;5050620;28;992;-34
2021/12/27 08:53:06;;;;;;;;;;;22.90;53.00;;;;;;5052887;28;1004;-34
2021/12/27 08:55:36;;;;;;;;;;;22.90;52.90;;;;;;5055055;28;1123;-34
2021/12/27 08:58:04;;;;;;;;;;;22.80;52.90;;;;;;5053323;28;1049;-34
2021/12/27 09:00:31;;;;;;;;;;;22.80;52.90;;;;;;5056785;28;956;-34
2021/12/27 09:02:58;;;;;;;;;;;22.80;52.90;;;;;;5056644;28;1012;-34
2021/12/27 09:05:25;;;;;;;;;;;22.90;52.80;;;;;;5055893;28;1922;-37
2021/12/27 09:07:52;;;;;;;;;;;22.80;52.80;;;;;;5052557;28;925;-34
2021/12/27 09:10:18;;;;;;;;;;;22.80;52.80;;;;;;5056251;28;1024;-34
2021/12/27 09:12:46;;;;;;;;;;;22.90;52.60;;;;;;5055922;28;981;-34
2021/12/27 09:15:15;;;;;;;;;;;22.80;52.80;;;;;;5056345;28;1072;-34
2021/12/27 09:17:42;;;;;;;;;;;22.80;53.00;;;;;;5052362;28;988;-34
2021/12/27 09:20:09;;;;;;;;;;;22.80;52.80;;;;;;5056800;28;1003;-34
2021/12/27 09:22:36;;;;;;;;;;;22.90;52.70;;;;;;5056568;28;1027;-34
2021/12/27 09:25:03;;;;;;;;;;;22.90;52.80;;;;;;5056727;28;1894;-34
2021/12/27 09:27:30;;;;;;;;;;;22.80;52.80;;;;;;5049240;27;1003;-34
2021/12/27 09:29:58;;;;;;;;;;;22.90;52.70;;;;;;5056142;28;1001;-37
2021/12/27 09:32:25;;;;;;;;;;;22.90;52.70;;;;;;5056376;28;1035;-38
2021/12/27 09:34:53;;;;;;;;;;;22.90;52.70;;;;;;5065963;28;1300;-37
2021/12/27 09:37:22;;;;;;;;;;;22.80;52.70;;;;;;5070518;27;1008;-38
2021/12/27 09:39:53;;;;;;;;;;;22.80;52.80;;;;;;5076193;27;1444;-37
2021/12/27 09:42:21;;;;;;;;;;;22.80;52.60;;;;;;5076178;27;996;-37
2021/12/27 09:44:48;;;;;;;;;;;22.80;52.80;;;;;;5076136;28;1905;-48
2021/12/27 09:47:16;;;;;;;;;;;22.70;52.90;;;;;;5069616;28;1002;-37
2021/12/27 09:49:44;;;;;;;;;;;22.80;52.70;;;;;;5075539;28;974;-37
2021/12/27 09:52:11;;;;;;;;;;;22.80;52.60;;;;;;5074650;28;912;-37
2021/12/27 09:54:39;;;;;;;;;;;22.70;52.80;;;;;;5075448;27;963;-34
2021/12/27 09:57:06;;;;;;;;;;;22.80;52.90;;;;;;5069642;27;1013;-40
2021/12/27 09:59:32;;;;;;;;;;;22.70;52.80;;;;;;5073643;28;1128;-33
2021/12/27 10:01:59;;;;;;;;;;;22.70;52.90;;;;;;5075251;27;972;-33
2021/12/27 10:04:28;;;;;;;;;;;22.70;52.80;;;;;;5074766;28;1011;-33
2021/12/27 10:06:55;;;;;;;;;;;22.80;52.80;;;;;;5069938;27;1926;-34
2021/12/27 10:09:22;;;;;;;;;;;22.80;52.80;;;;;;5074730;27;1026;-34
2021/12/27 10:11:49;;;;;;;;;;;22.80;52.70;;;;;;5074910;28;986;-34
2021/12/27 10:14:16;;;;;;;;;;;22.80;52.70;;;;;;5074549;27;931;-34
2021/12/27 10:16:44;;;;;;;;;;;22.80;52.50;;;;;;5069956;27;1004;-33
2021/12/27 10:19:13;;;;;;;;;;;22.70;52.70;;;;;;5065197;28;928;-34
2021/12/27 10:21:41;;;;;;;;;;;22.70;52.80;;;;;;5069665;27;979;-43
2021/12/27 10:24:10;;;;;;;;;;;22.70;52.70;;;;;;5070890;28;860;-34
2021/12/27 10:26:37;;;;;;;;;;;22.70;52.70;;;;;;5069762;27;1979;-34
2021/12/27 10:29:11;;;;;;;;;;;22.80;52.50;;;;;;5073570;28;1008;-34
2021/12/27 10:31:55;;;;;;;;;;;22.80;52.60;;;;;;5071086;28;1022;-33
2021/12/27 10:34:22;;;;;;;;;;;22.80;52.80;;;;;;5073335;27;918;-33
2021/12/27 10:37:01;;;;;;;;;;;22.70;52.60;;;;;;5070468;28;975;-34
2021/12/27 10:39:42;;;;;;;;;;;22.70;52.90;;;;;;5074233;28;940;-34
2021/12/27 10:42:09;;;;;;;;;;;22.70;52.60;;;;;;5070127;28;1015;-34
2021/12/27 10:44:36;;;;;;;;;;;22.70;52.70;;;;;;5074408;28;1031;-33
2021/12/27 10:47:04;;;;;;;;;;;22.70;52.80;;;;;;5067197;27;1989;-33
2021/12/27 10:49:45;;;;;;;;;;;22.70;52.70;;;;;;5073923;27;939;-50
2021/12/27 10:52:13;;;;;;;;;;;22.70;52.60;;;;;;5069847;27;1026;-34
2021/12/27 10:54:40;;;;;;;;;;;22.70;52.60;;;;;;5074550;28;944;-33
2021/12/27 10:57:07;;;;;;;;;;;22.70;52.50;;;;;;5069212;27;1004;-33
2021/12/27 10:59:34;;;;;;;;;;;22.80;52.50;;;;;;5072636;28;1096;-33
2021/12/27 11:02:08;;;;;;;;;;;22.80;52.40;;;;;;5070025;28;1011;-33
2021/12/27 11:04:35;;;;;;;;;;;22.80;52.50;;;;;;5074208;27;895;-34
2021/12/27 11:07:03;;;;;;;;;;;22.70;52.50;;;;;;5069095;28;1898;-33
2021/12/27 11:09:31;;;;;;;;;;;22.70;52.40;;;;;;5055804;28;975;-34
2021/12/27 11:11:58;;;;;;;;;;;22.70;52.40;;;;;;4992895;28;1170;-34
2021/12/27 11:14:25;;;;;;;;;;;22.80;52.40;;;;;;4994850;28;971;-34
2021/12/27 11:16:53;;;;;;;;;;;22.70;52.50;;;;;;4997223;28;970;-34
2021/12/27 11:19:20;;;;;;;;;;;22.70;52.60;;;;;;4996098;27;2188;-34
2021/12/27 11:21:48;;;;;;;;;;;22.70;52.60;;;;;;4994550;28;1019;-34
2021/12/27 11:24:15;;;;;;;;;;;22.70;52.50;;;;;;5004331;27;1004;-34
2021/12/27 11:26:44;;;;;;;;;;;22.70;52.60;;;;;;5071141;28;1910;-35
2021/12/27 11:29:12;;;;;;;;;;;22.60;52.70;;;;;;5072363;28;1862;-33
2021/12/27 11:31:39;;;;;;;;;;;22.60;52.60;;;;;;5073957;28;991;-33
2021/12/27 11:34:07;;;;;;;;;;;22.60;52.70;;;;;;5074458;28;1011;-33
2021/12/27 11:36:35;;;;;;;;;;;22.60;52.70;;;;;;5067582;28;986;-33
2021/12/27 11:39:18;;;;;;;;;;;22.60;52.80;;;;;;5072470;28;1015;-34
2021/12/27 11:41:56;;;;;;;;;;;22.60;52.70;;;;;;5073940;27;995;-34
2021/12/27 11:44:32;;;;;;;;;;;22.70;52.70;;;;;;5074080;28;955;-33
2021/12/27 11:47:00;;;;;;;;;;;22.70;52.50;;;;;;5063735;28;1981;-33
2021/12/27 11:49:35;;;;;;;;;;;22.70;52.60;;;;;;5073433;27;821;-34
2021/12/27 11:52:23;;;;;;;;;;;22.70;52.60;;;;;;5073281;27;1018;-34
2021/12/27 11:54:51;;;;;;;;;;;22.60;52.60;;;;;;5074198;27;1038;-33
2021/12/27 11:57:32;;;;;;;;;;;22.60;52.60;;;;;;5067119;27;1209;-34
2021/12/27 12:00:00;;;;;;;;;;;22.60;52.60;;;;;;5073231;27;1255;-33
2021/12/27 12:02:28;;;;;;;;;;;22.60;52.70;;;;;;5074072;28;939;-37
2021/12/27 12:04:55;;;;;;;;;;;22.60;52.70;;;;;;5073563;28;987;-37
2021/12/27 12:07:41;;;;;;;;;;;22.60;52.70;;;;;;5066327;28;1977;-37
2021/12/27 12:10:13;;;;;;;;;;;22.70;52.50;;;;;;5071426;28;924;-37
2021/12/27 12:12:40;;;;;;;;;;;22.70;52.50;;;;;;5070848;28;984;-37
2021/12/27 12:15:09;;;;;;;;;;;22.70;52.30;;;;;;5071301;28;872;-37
2021/12/27 12:17:37;;;;;;;;;;;22.70;52.60;;;;;;5067912;28;975;-37
2021/12/27 12:20:05;;;;;;;;;;;22.60;52.50;;;;;;5072498;28;978;-37
2021/12/27 12:22:33;;;;;;;;;;;22.60;52.50;;;;;;5067222;28;939;-36
2021/12/27 12:25:21;;;;;;;;;;;22.70;52.40;;;;;;5074029;28;974;-36
2021/12/27 12:27:55;;;;;;;;;;;22.70;52.50;;;;;;5056736;28;1989;-37
2021/12/27 12:30:25;;;;;;;;;;;22.60;52.50;;;;;;5000267;28;841;-37
2021/12/27 12:32:58;;;;;;;;;;;22.70;52.40;;;;;;4999510;27;848;-37
2021/12/27 12:35:32;;;;;;;;;;;22.70;52.40;;;;;;4994705;28;1122;-37
2021/12/27 12:38:09;;;;;;;;;;;22.70;52.50;;;;;;4995206;28;1093;-37
2021/12/27 12:40:36;;;;;;;;;;;22.70;52.50;;;;;;4998296;27;852;-37
2021/12/27 12:43:02;;;;;;;;;;;22.70;52.30;;;;;;5022833;28;1027;-37
2021/12/27 12:45:31;;;;;;;;;;;22.70;52.40;;;;;;5076016;28;1038;-37
2021/12/27 12:47:58;;;;;;;;;;;22.80;52.30;;;;;;5073007;28;1926;-37
2021/12/27 12:50:25;;;;;;;;;;;22.70;52.30;;;;;;5076357;28;928;-37
2021/12/27 12:52:52;;;;;;;;;;;22.70;52.20;;;;;;5075518;28;1193;-37
2021/12/27 12:55:20;;;;;;;;;;;22.70;52.30;;;;;;5073139;28;995;-37
2021/12/27 12:57:48;;;;;;;;;;;22.70;52.40;;;;;;5068995;27;1119;-37
2021/12/27 13:00:15;;;;;;;;;;;22.60;52.40;;;;;;5069170;28;915;-37
2021/12/27 13:02:43;;;;;;;;;;;22.70;52.40;;;;;;5069835;28;923;-37
2021/12/27 13:05:13;;;;;;;;;;;22.70;52.40;;;;;;5070883;28;971;-37
2021/12/27 13:07:44;;;;;;;;;;;22.70;52.30;;;;;;5068774;27;1889;-37
2021/12/27 13:10:12;;;;;;;;;;;22.60;52.40;;;;;;5070001;27;1026;-37
2021/12/27 13:12:39;;;;;;;;;;;22.70;52.30;;;;;;5070866;28;987;-37
2021/12/27 13:15:10;;;;;;;;;;;22.70;52.20;;;;;;5073261;28;1048;-41
2021/12/27 13:17:37;;;;;;;;;;;22.70;52.20;;;;;;5071598;28;923;-37
2021/12/27 13:20:07;;;;;;;;;;;22.70;52.40;;;;;;5076166;28;927;-37
2021/12/27 13:22:53;;;;;;;;;;;22.60;52.30;;;;;;5074370;28;995;-36
2021/12/27 13:25:34;;;;;;;;;;;22.70;52.30;;;;;;5075711;27;1067;-37
2021/12/27 13:28:17;;;;;;;;;;;22.70;52.40;;;;;;5074040;28;1898;-37
2021/12/27 13:30:48;;;;;;;;;;;22.60;52.30;;;;;;5075157;27;991;-37
2021/12/27 13:33:15;;;;;;;;;;;22.60;52.40;;;;;;5074344;28;967;-37
2021/12/27 13:35:44;;;;;;;;;;;22.70;52.40;;;;;;5072744;28;975;-36
2021/12/27 13:38:15;;;;;;;;;;;22.60;52.30;;;;;;5070863;27;955;-37
2021/12/27 13:40:44;;;;;;;;;;;22.60;52.50;;;;;;5073411;27;1638;-37
2021/12/27 13:43:10;;;;;;;;;;;22.60;52.40;;;;;;5074687;27;1006;-36
2021/12/27 13:45:41;;;;;;;;;;;22.60;52.30;;;;;;5073976;28;943;-37
2021/12/27 13:48:08;;;;;;;;;;;22.60;52.40;;;;;;5071912;27;1988;-37
2021/12/27 13:50:35;;;;;;;;;;;22.60;52.30;;;;;;5074461;28;951;-37
2021/12/27 13:53:11;;;;;;;;;;;22.60;52.30;;;;;;5073815;27;1115;-37
2021/12/27 13:55:37;;;;;;;;;;;22.70;52.30;;;;;;5074596;28;1006;-37
2021/12/27 13:58:14;;;;;;;;;;;22.60;52.20;;;;;;5072418;28;1112;-37
2021/12/27 14:00:41;;;;;;;;;;;22.70;52.10;;;;;;5072464;27;1034;-37
2021/12/27 14:03:23;;;;;;;;;;;22.70;52.00;;;;;;5073000;28;1031;-37
2021/12/27 14:05:52;;;;;;;;;;;22.60;52.10;;;;;;5072732;28;1161;-37
2021/12/27 14:08:21;;;;;;;;;;;22.70;52.10;;;;;;5071867;28;1988;-37
2021/12/27 14:10:59;;;;;;;;;;;22.70;52.10;;;;;;5072149;28;1007;-37
2021/12/27 14:13:26;;;;;;;;;;;22.70;53.30;;;;;;5073591;28;983;-37
2021/12/27 14:15:53;;;;;;;;;;;22.70;52.10;;;;;;5073073;28;972;-37
2021/12/27 14:18:19;;;;;;;;;;;22.70;52.10;;;;;;5072346;28;1000;-37
2021/12/27 14:21:01;;;;;;;;;;;22.60;52.10;;;;;;5074014;28;1012;-36
2021/12/27 14:23:29;;;;;;;;;;;22.60;52.10;;;;;;5073602;28;1035;-37
2021/12/27 14:26:08;;;;;;;;;;;22.60;52.10;;;;;;5072901;27;1033;-37
2021/12/27 14:28:35;;;;;;;;;;;22.60;52.30;;;;;;5069554;28;2039;-36
2021/12/27 14:31:02;;;;;;;;;;;22.60;52.10;;;;;;5063498;28;1833;-36
2021/12/27 14:33:28;;;;;;;;;;;22.70;52.00;;;;;;5069917;28;1537;-37
2021/12/27 14:35:56;;;;;;;;;;;22.70;52.10;;;;;;5053884;28;904;-37
2021/12/27 14:38:23;;;;;;;;;;;22.60;52.10;;;;;;5054292;28;1039;-37
2021/12/27 14:40:52;;;;;;;;;;;22.60;52.10;;;;;;5051648;28;1097;-37
2021/12/27 14:43:20;;;;;;;;;;;22.60;52.20;;;;;;5053677;28;869;-37